createdAt,value
2023-04-12T00:00:11.219Z,11.30
2023-04-12T00:02:39.470Z,11.29
2023-04-12T00:05:06.464Z,11.28
2023-04-12T00:07:32.938Z,11.26
2023-04-12T00:09:59.595Z,11.21
2023-04-12T00:12:26.039Z,11.20
2023-04-12T00:14:52.452Z,11.21
2023-04-12T00:17:19.402Z,11.17
2023-04-12T00:19:47.624Z,11.17
2023-04-12T00:22:14.958Z,11.14
2023-04-12T00:24:41.779Z,11.11
2023-04-12T00:27:08.451Z,11.04
2023-04-12T00:29:35.014Z,11.05
2023-04-12T00:32:01.716Z,10.99
2023-04-12T00:34:28.725Z,10.96
2023-04-12T00:36:55.984Z,10.93
2023-04-12T00:39:22.745Z,10.94
2023-04-12T00:41:49.383Z,10.90
2023-04-12T00:44:18.094Z,10.88
2023-04-12T00:46:46.360Z,10.82
2023-04-12T00:49:13.106Z,10.76
2023-04-12T00:51:40.363Z,10.77
2023-04-12T00:54:07.401Z,10.73
2023-04-12T00:56:34.826Z,10.68
2023-04-12T00:59:02.113Z,10.64
2023-04-12T01:01:28.673Z,10.62
2023-04-12T01:04:01.011Z,10.56
2023-04-12T01:07:20.898Z,10.52
2023-04-12T01:10:24.297Z,10.46
2023-04-12T01:13:12.951Z,10.46
2023-04-12T01:15:51.716Z,10.42
2023-04-12T01:18:23.631Z,10.43
2023-04-12T01:21:13.703Z,10.40
2023-04-12T01:23:59.156Z,10.42
2023-04-12T01:26:39.365Z,10.44
2023-04-12T01:29:10.892Z,10.37
2023-04-12T01:31:46.491Z,10.34
2023-04-12T01:34:14.732Z,10.35
2023-04-12T01:36:43.899Z,10.35
2023-04-12T01:39:10.786Z,10.27
2023-04-12T01:41:42.150Z,10.30
2023-04-12T01:44:08.797Z,10.20
2023-04-12T01:46:37.474Z,10.17
2023-04-12T01:49:04.316Z,10.18
2023-04-12T01:51:52.595Z,10.13
2023-04-12T01:54:27.493Z,10.06
2023-04-12T01:56:59.640Z,10.06
2023-04-12T01:59:34.796Z,10.05
2023-04-12T02:02:02.745Z,10.03
2023-04-12T02:04:30.285Z,10.02
2023-04-12T02:06:57.321Z,10.02
2023-04-12T02:09:23.987Z,10.03
2023-04-12T02:11:50.650Z,9.99
2023-04-12T02:14:17.481Z,9.99
2023-04-12T02:16:44.754Z,9.95
2023-04-12T02:19:12.477Z,9.92
2023-04-12T02:21:43.374Z,9.87
2023-04-12T02:24:10.604Z,9.85
2023-04-12T02:26:38.354Z,9.83
2023-04-12T02:29:08.970Z,9.81
2023-04-12T02:31:36.882Z,9.81
2023-04-12T02:34:03.269Z,9.77
2023-04-12T02:36:29.712Z,9.77
2023-04-12T02:38:56.550Z,9.80
2023-04-12T02:41:23.813Z,9.78
2023-04-12T02:43:51.028Z,9.72
2023-04-12T02:46:21.779Z,9.73
2023-04-12T02:48:49.146Z,9.71
2023-04-12T02:51:15.810Z,9.72
2023-04-12T02:53:42.815Z,9.71
2023-04-12T02:56:09.610Z,9.71
2023-04-12T02:58:36.828Z,9.72
2023-04-12T03:01:07.824Z,9.73
2023-04-12T03:03:35.690Z,9.74
2023-04-12T03:06:02.593Z,9.73
2023-04-12T03:08:28.968Z,9.69
2023-04-12T03:10:56.223Z,9.65
2023-04-12T03:13:22.670Z,9.67
2023-04-12T03:15:53.036Z,9.67
2023-04-12T03:18:23.474Z,9.65
2023-04-12T03:20:50.286Z,9.63
2023-04-12T03:23:16.684Z,9.61
2023-04-12T03:25:43.774Z,9.63
2023-04-12T03:28:10.330Z,9.60
2023-04-12T03:30:36.768Z,9.60
2023-04-12T03:33:03.270Z,9.66
2023-04-12T03:35:29.746Z,9.69
2023-04-12T03:37:56.104Z,9.68
2023-04-12T03:40:22.487Z,9.69
2023-04-12T03:42:48.856Z,9.67
2023-04-12T03:45:15.335Z,9.70
2023-04-12T03:47:41.884Z,9.68
2023-04-12T03:50:12.412Z,9.68
2023-04-12T03:52:39.206Z,9.68
2023-04-12T03:55:07.462Z,9.70
2023-04-12T03:57:34.652Z,9.73
2023-04-12T04:00:01.348Z,9.75
2023-04-12T04:02:28.125Z,9.75
2023-04-12T04:04:54.871Z,9.77
2023-04-12T04:07:22.415Z,9.81
2023-04-12T04:09:50.022Z,9.77
2023-04-12T04:12:16.592Z,9.79
2023-04-12T04:14:43.056Z,9.77
2023-04-12T04:17:09.500Z,9.77
2023-04-12T04:19:35.911Z,9.78
2023-04-12T04:22:02.475Z,9.77
2023-04-12T04:24:29.161Z,9.81
2023-04-12T04:26:55.557Z,9.76
2023-04-12T04:29:22.059Z,9.81
2023-04-12T04:31:48.749Z,9.82
2023-04-12T04:34:16.412Z,9.78
2023-04-12T04:36:43.741Z,9.75
2023-04-12T04:39:10.449Z,9.77
2023-04-12T04:41:41.386Z,9.75
2023-04-12T04:44:11.215Z,9.78
2023-04-12T04:46:38.200Z,9.79
2023-04-12T04:49:05.389Z,9.80
2023-04-12T04:51:32.420Z,9.77
2023-04-12T04:53:59.237Z,9.75
2023-04-12T04:56:26.209Z,9.77
2023-04-12T04:58:54.062Z,9.73
2023-04-12T05:01:25.789Z,9.72
2023-04-12T05:03:52.410Z,9.70
2023-04-12T05:06:18.946Z,9.70
2023-04-12T05:08:45.374Z,9.65
2023-04-12T05:11:11.838Z,9.67
2023-04-12T05:13:38.272Z,9.67
2023-04-12T05:16:08.168Z,9.70
2023-04-12T05:18:34.805Z,9.68
2023-04-12T05:21:05.367Z,9.71
2023-04-12T05:23:42.872Z,9.68
2023-04-12T05:26:09.267Z,9.65
2023-04-12T05:28:35.676Z,9.65
2023-04-12T05:31:02.253Z,9.62
2023-04-12T05:33:29.254Z,9.61
2023-04-12T05:35:57.136Z,9.64
2023-04-12T05:38:24.007Z,9.64
2023-04-12T05:40:50.432Z,9.61
2023-04-12T05:43:17.763Z,9.58
2023-04-12T05:45:44.171Z,9.59
2023-04-12T05:48:11.096Z,9.59
2023-04-12T05:50:37.655Z,9.59
2023-04-12T05:53:04.223Z,9.61
2023-04-12T05:55:30.788Z,9.61
2023-04-12T05:57:58.571Z,9.60
2023-04-12T06:00:25.165Z,9.63
2023-04-12T06:02:52.362Z,9.63
2023-04-12T06:05:19.458Z,9.66
2023-04-12T06:07:49.052Z,9.67
2023-04-12T06:10:17.562Z,9.65
2023-04-12T06:12:44.987Z,9.67
2023-04-12T06:15:11.699Z,9.63
2023-04-12T06:17:38.445Z,9.66
2023-04-12T06:20:09.721Z,9.69
2023-04-12T06:22:37.259Z,9.71
2023-04-12T06:25:04.611Z,9.71
2023-04-12T06:27:31.413Z,9.71
2023-04-12T06:29:58.143Z,9.73
2023-04-12T06:32:25.266Z,9.80
2023-04-12T06:34:51.906Z,9.86
2023-04-12T06:37:18.502Z,9.81
2023-04-12T06:39:44.945Z,9.84
2023-04-12T06:42:14.019Z,9.88
2023-04-12T06:44:41.444Z,9.90
2023-04-12T06:47:08.122Z,9.90
2023-04-12T06:49:34.830Z,9.94
2023-04-12T06:52:01.196Z,9.96
2023-04-12T06:54:27.582Z,9.99
2023-04-12T06:56:53.974Z,10.03
2023-04-12T06:59:20.503Z,10.00
2023-04-12T07:01:46.951Z,10.04
2023-04-12T07:04:13.754Z,10.07
2023-04-12T07:06:40.419Z,10.08
2023-04-12T07:09:06.888Z,10.08
2023-04-12T07:11:33.393Z,10.10
2023-04-12T07:13:59.850Z,10.11
2023-04-12T07:16:26.343Z,10.09
2023-04-12T07:18:52.837Z,10.06
2023-04-12T07:21:19.244Z,10.10
2023-04-12T07:23:47.562Z,10.11
2023-04-12T07:26:13.979Z,10.11
2023-04-12T07:28:40.721Z,10.17
2023-04-12T07:31:07.592Z,10.18
2023-04-12T07:33:35.986Z,10.21
2023-04-12T07:36:03.969Z,10.20
2023-04-12T07:38:30.669Z,10.23
2023-04-12T07:40:57.134Z,10.22
2023-04-12T07:43:23.877Z,10.22
2023-04-12T07:45:50.526Z,10.22
2023-04-12T07:48:17.121Z,10.33
2023-04-12T07:50:43.834Z,10.35
2023-04-12T07:53:26.436Z,10.35
2023-04-12T07:55:53.485Z,10.41
2023-04-12T07:58:22.267Z,10.48
2023-04-12T08:00:49.211Z,10.49
2023-04-12T08:03:17.610Z,10.49
2023-04-12T08:05:45.081Z,10.50
2023-04-12T08:08:12.089Z,10.52
2023-04-12T08:10:40.823Z,10.57
2023-04-12T08:13:07.591Z,10.62
2023-04-12T08:15:34.500Z,10.67
2023-04-12T08:18:02.167Z,10.67
2023-04-12T08:20:29.053Z,10.76
2023-04-12T08:22:55.726Z,10.81
2023-04-12T08:25:22.498Z,10.87
2023-04-12T08:27:50.765Z,10.83
2023-04-12T08:30:18.133Z,10.88
2023-04-12T08:32:44.852Z,10.87
2023-04-12T08:35:12.063Z,10.93
2023-04-12T08:37:38.797Z,10.96
2023-04-12T08:40:07.409Z,11.04
2023-04-12T08:42:38.121Z,11.05
2023-04-12T08:45:06.194Z,11.06
2023-04-12T08:47:34.773Z,11.19
2023-04-12T08:50:02.824Z,11.24
2023-04-12T08:52:29.524Z,11.26
2023-04-12T08:54:56.304Z,11.30
2023-04-12T08:57:22.801Z,11.26
2023-04-12T08:59:51.083Z,11.31
2023-04-12T09:02:17.614Z,11.31
2023-04-12T09:04:50.856Z,11.37
2023-04-12T09:07:17.560Z,11.35
2023-04-12T09:09:47.790Z,11.27
2023-04-12T09:12:15.690Z,11.29
2023-04-12T09:14:45.305Z,11.41
2023-04-12T09:17:25.462Z,11.52
2023-04-12T09:19:52.482Z,11.57
2023-04-12T09:22:19.068Z,11.60
2023-04-12T09:24:47.424Z,11.59
2023-04-12T09:27:13.932Z,11.69
2023-04-12T09:29:40.399Z,11.75
2023-04-12T09:32:08.641Z,11.77
2023-04-12T09:34:36.550Z,11.78
2023-04-12T09:37:17.202Z,11.75
2023-04-12T09:39:43.791Z,11.79
2023-04-12T09:42:25.640Z,11.78
2023-04-12T09:44:58.750Z,11.84
2023-04-12T09:47:39.376Z,11.85
2023-04-12T09:50:07.990Z,11.94
2023-04-12T09:52:38.855Z,12.04
2023-04-12T09:55:10.745Z,12.12
2023-04-12T09:57:44.501Z,12.18
2023-04-12T10:00:14.455Z,12.28
2023-04-12T10:02:44.913Z,12.37
2023-04-12T10:05:16.035Z,12.43
2023-04-12T10:07:43.187Z,12.47
2023-04-12T10:10:14.227Z,12.52
2023-04-12T10:12:42.113Z,12.60
2023-04-12T10:15:13.516Z,12.67
2023-04-12T10:17:46.387Z,12.73
2023-04-12T10:20:14.515Z,12.86
2023-04-12T10:22:53.644Z,13.00
2023-04-12T10:25:22.916Z,13.15
2023-04-12T10:27:49.941Z,13.09
2023-04-12T10:30:28.335Z,13.23
2023-04-12T10:33:08.333Z,13.37
2023-04-12T10:36:08.388Z,13.26
2023-04-12T10:38:47.928Z,13.21
2023-04-12T10:41:15.934Z,13.18
2023-04-12T10:43:47.109Z,13.20
2023-04-12T10:46:45.489Z,13.21
2023-04-12T10:49:13.652Z,13.13
2023-04-12T10:52:00.893Z,13.28
2023-04-12T10:54:27.291Z,13.26
2023-04-12T10:56:53.757Z,13.37
2023-04-12T10:59:20.808Z,13.42
2023-04-12T11:02:13.112Z,13.57
2023-04-12T11:05:09.869Z,13.86
2023-04-12T11:07:44.309Z,14.09
2023-04-12T11:10:15.738Z,14.22
2023-04-12T11:12:48.053Z,14.30
2023-04-12T11:15:14.590Z,14.40
2023-04-12T11:17:41.054Z,14.50
2023-04-12T11:20:12.241Z,14.55
2023-04-12T11:22:40.931Z,14.59
2023-04-12T11:25:07.737Z,14.64
2023-04-12T11:27:34.587Z,14.60
2023-04-12T11:30:01.610Z,14.57
2023-04-12T11:32:30.270Z,14.59
2023-04-12T11:34:58.191Z,14.59
2023-04-12T11:37:26.806Z,14.61
2023-04-12T11:39:55.660Z,14.66
2023-04-12T11:42:25.345Z,14.75
2023-04-12T11:44:58.985Z,14.92
2023-04-12T11:47:27.774Z,15.00
2023-04-12T11:49:57.129Z,15.08
2023-04-12T11:52:32.136Z,15.01
2023-04-12T11:55:05.249Z,14.92
2023-04-12T11:57:32.077Z,14.90
2023-04-12T12:00:02.284Z,14.84
2023-04-12T12:02:32.354Z,14.74
2023-04-12T12:05:03.583Z,14.46
2023-04-12T12:07:30.753Z,14.28
2023-04-12T12:09:57.839Z,14.09
2023-04-12T12:12:25.102Z,13.85
2023-04-12T12:14:51.732Z,13.65
2023-04-12T12:17:18.215Z,13.53
2023-04-12T12:19:46.141Z,13.47
2023-04-12T12:22:16.214Z,13.47
2023-04-12T12:24:58.639Z,13.59
2023-04-12T12:27:34.549Z,13.91
2023-04-12T12:30:02.487Z,14.21
2023-04-12T12:32:33.289Z,14.69
2023-04-12T12:34:59.807Z,15.02
2023-04-12T12:37:27.832Z,15.00
2023-04-12T12:40:28.265Z,15.06
2023-04-12T12:42:55.942Z,15.27
2023-04-12T12:45:24.450Z,15.05
2023-04-12T12:47:53.778Z,14.80
2023-04-12T12:50:24.741Z,14.77
2023-04-12T12:52:52.852Z,14.75
2023-04-12T12:55:21.090Z,15.13
2023-04-12T12:58:02.141Z,15.68
2023-04-12T13:00:32.984Z,15.95
2023-04-12T13:02:59.643Z,16.29
2023-04-12T13:05:26.492Z,16.39
2023-04-12T13:07:52.984Z,16.75
2023-04-12T13:10:19.493Z,17.06
2023-04-12T13:12:46.112Z,17.08
2023-04-12T13:15:22.398Z,16.95
2023-04-12T13:17:52.415Z,16.76
2023-04-12T13:20:19.121Z,16.55
2023-04-12T13:22:45.611Z,16.29
2023-04-12T13:25:12.142Z,15.92
2023-04-12T13:27:38.597Z,15.66
2023-04-12T13:30:06.212Z,15.47
2023-04-12T13:32:32.863Z,15.38
2023-04-12T13:34:59.400Z,15.50
2023-04-12T13:37:25.972Z,15.77
2023-04-12T13:39:52.820Z,16.08
2023-04-12T13:42:19.435Z,16.43
2023-04-12T13:44:46.006Z,17.00
2023-04-12T13:47:12.579Z,17.32
2023-04-12T13:49:39.035Z,17.41
2023-04-12T13:52:05.810Z,17.33
2023-04-12T13:54:32.459Z,17.06
2023-04-12T13:56:59.360Z,16.65
2023-04-12T13:59:26.674Z,16.36
2023-04-12T14:01:53.679Z,15.98
2023-04-12T14:04:20.562Z,15.65
2023-04-12T14:06:47.052Z,15.38
2023-04-12T14:09:30.873Z,15.23
2023-04-12T14:11:58.476Z,15.11
2023-04-12T14:14:26.205Z,15.16
2023-04-12T14:16:56.943Z,15.40
2023-04-12T14:19:24.101Z,15.54
2023-04-12T14:21:50.937Z,15.92
2023-04-12T14:24:18.405Z,16.01
2023-04-12T14:26:45.315Z,16.02
2023-04-12T14:29:11.904Z,16.25
2023-04-12T14:31:38.518Z,16.30
2023-04-12T14:34:05.513Z,16.34
2023-04-12T14:36:33.412Z,16.31
2023-04-12T14:39:01.719Z,16.32
2023-04-12T14:41:28.373Z,16.55
2023-04-12T14:43:54.794Z,17.13
2023-04-12T14:46:21.480Z,17.61
2023-04-12T14:48:47.970Z,18.08
2023-04-12T14:51:14.390Z,18.15
2023-04-12T14:53:42.481Z,18.04
2023-04-12T14:56:24.554Z,17.87
2023-04-12T14:58:55.798Z,17.74
2023-04-12T15:01:23.651Z,17.59
2023-04-12T15:03:51.830Z,17.44
2023-04-12T15:06:19.332Z,17.27
2023-04-12T15:08:46.616Z,17.04
2023-04-12T15:11:13.432Z,16.91
2023-04-12T15:13:41.490Z,16.85
2023-04-12T15:16:09.204Z,16.65
2023-04-12T15:18:39.327Z,16.30
2023-04-12T15:21:08.215Z,16.15
2023-04-12T15:23:39.741Z,16.63
2023-04-12T15:26:09.438Z,16.77
2023-04-12T15:28:36.398Z,16.96
2023-04-12T15:31:02.979Z,16.78
2023-04-12T15:33:30.229Z,16.65
2023-04-12T15:35:56.763Z,16.48
2023-04-12T15:38:26.329Z,16.02
2023-04-12T15:41:00.641Z,15.90
2023-04-12T15:43:27.991Z,15.92
2023-04-12T15:45:54.885Z,15.78
2023-04-12T15:48:23.172Z,15.56
2023-04-12T15:50:50.880Z,15.66
2023-04-12T15:53:20.387Z,15.92
2023-04-12T15:55:47.652Z,16.42
2023-04-12T15:58:14.714Z,16.87
2023-04-12T16:00:41.262Z,17.16
2023-04-12T16:03:09.086Z,17.62
2023-04-12T16:05:35.947Z,18.01
2023-04-12T16:08:02.731Z,18.33
2023-04-12T16:10:30.225Z,18.66
2023-04-12T16:12:57.155Z,18.73
2023-04-12T16:15:23.727Z,18.92
2023-04-12T16:17:54.375Z,19.23
2023-04-12T16:20:22.039Z,19.56
2023-04-12T16:22:54.102Z,19.83
2023-04-12T16:25:22.381Z,19.54
2023-04-12T16:27:48.809Z,19.30
2023-04-12T16:30:15.765Z,19.01
2023-04-12T16:32:44.989Z,18.60
2023-04-12T16:35:11.634Z,18.14
2023-04-12T16:37:38.146Z,17.69
2023-04-12T16:40:07.982Z,17.15
2023-04-12T16:42:34.380Z,16.57
2023-04-12T16:45:00.867Z,15.62
2023-04-12T16:47:27.371Z,15.05
2023-04-12T16:49:53.849Z,14.68
2023-04-12T16:52:20.395Z,14.70
2023-04-12T16:54:46.867Z,14.83
2023-04-12T16:57:13.291Z,14.98
2023-04-12T16:59:42.317Z,15.02
2023-04-12T17:02:08.789Z,14.96
2023-04-12T17:04:35.327Z,14.75
2023-04-12T17:07:02.499Z,14.46
2023-04-12T17:09:29.296Z,14.01
2023-04-12T17:11:56.567Z,13.72
2023-04-12T17:14:23.044Z,13.48
2023-04-12T17:16:49.488Z,13.20
2023-04-12T17:19:15.986Z,13.09
2023-04-12T17:21:42.656Z,12.93
2023-04-12T17:24:09.366Z,12.81
2023-04-12T17:26:37.294Z,12.70
2023-04-12T17:29:04.201Z,12.60
2023-04-12T17:34:05.990Z,12.49
2023-04-12T17:36:33.780Z,12.43
2023-04-12T17:39:04.242Z,12.39
2023-04-12T17:41:31.392Z,12.36
2023-04-12T17:43:59.233Z,12.29
2023-04-12T17:46:26.471Z,12.22
2023-04-12T17:48:53.295Z,12.14
2023-04-12T17:51:19.845Z,12.10
2023-04-12T17:53:46.428Z,12.04
2023-04-12T17:56:12.903Z,12.00
2023-04-12T17:58:39.335Z,11.96
2023-04-12T18:01:06.016Z,11.92
2023-04-12T18:03:32.585Z,11.84
2023-04-12T18:05:59.463Z,11.78
2023-04-12T18:08:25.979Z,11.73
2023-04-12T18:10:52.443Z,11.65
2023-04-12T18:13:19.187Z,11.59
2023-04-12T18:15:46.118Z,11.48
2023-04-12T18:18:12.695Z,11.44
2023-04-12T18:20:39.387Z,11.41
2023-04-12T18:23:05.947Z,11.35
2023-04-12T18:25:32.358Z,11.28
2023-04-12T18:27:59.082Z,11.20
2023-04-12T18:30:25.604Z,11.13
2023-04-12T18:32:52.158Z,11.05
2023-04-12T18:35:18.828Z,10.98
2023-04-12T18:37:45.668Z,10.90
2023-04-12T18:40:13.189Z,10.82
2023-04-12T18:42:39.714Z,10.73
2023-04-12T18:45:06.756Z,10.64
2023-04-12T18:47:33.305Z,10.60
2023-04-12T18:49:59.805Z,10.52
2023-04-12T18:52:26.272Z,10.47
2023-04-12T18:54:52.756Z,10.39
2023-04-12T18:57:19.316Z,10.31
2023-04-12T18:59:47.873Z,10.22
2023-04-12T19:02:15.194Z,10.14
2023-04-12T19:04:42.015Z,10.03
2023-04-12T19:07:08.490Z,9.96
2023-04-12T19:09:35.012Z,9.90
2023-04-12T19:12:03.002Z,9.84
2023-04-12T19:14:30.596Z,9.77
2023-04-12T19:16:57.380Z,9.70
2023-04-12T19:19:23.872Z,9.63
2023-04-12T19:21:50.304Z,9.55
2023-04-12T19:24:17.398Z,9.46
2023-04-12T19:26:47.261Z,9.39
2023-04-12T19:29:18.773Z,9.33
2023-04-12T19:31:47.573Z,9.27
2023-04-12T19:34:17.765Z,9.20
2023-04-12T19:36:44.625Z,9.17
2023-04-12T19:39:11.262Z,9.13
2023-04-12T19:41:37.725Z,9.07
2023-04-12T19:44:04.190Z,9.02
2023-04-12T19:46:32.646Z,8.99
2023-04-12T19:48:59.507Z,8.95
2023-04-12T19:51:26.236Z,8.88
2023-04-12T19:53:54.688Z,8.86
2023-04-12T19:56:23.357Z,8.82
2023-04-12T19:58:50.028Z,8.81
2023-04-12T20:01:16.551Z,8.82
2023-04-12T20:03:43.800Z,8.81
2023-04-12T20:06:10.950Z,8.77
2023-04-12T20:08:37.879Z,8.77
2023-04-12T20:11:04.715Z,8.76
2023-04-12T20:13:31.485Z,8.74
2023-04-12T20:16:00.705Z,8.72
2023-04-12T20:18:28.415Z,8.68
2023-04-12T20:20:57.614Z,8.64
2023-04-12T20:23:25.427Z,8.62
2023-04-12T20:25:51.957Z,8.63
2023-04-12T20:28:18.550Z,8.66
2023-04-12T20:30:47.910Z,8.67
2023-04-12T20:33:15.071Z,8.67
2023-04-12T20:35:42.467Z,8.70
2023-04-12T20:38:08.982Z,8.72
2023-04-12T20:40:35.904Z,8.72
2023-04-12T20:43:03.472Z,8.73
2023-04-12T20:45:30.102Z,8.71
2023-04-12T20:47:56.708Z,8.67
2023-04-12T20:50:24.498Z,8.65
2023-04-12T20:52:56.154Z,8.62
2023-04-12T20:55:25.280Z,8.58
2023-04-12T20:57:55.673Z,8.54
2023-04-12T21:00:23.528Z,8.50
2023-04-12T21:02:50.219Z,8.46
2023-04-12T21:05:18.042Z,8.44
2023-04-12T21:07:46.916Z,8.42
2023-04-12T21:10:14.792Z,8.44
2023-04-12T21:12:42.713Z,8.46
2023-04-12T21:15:11.683Z,8.49
2023-04-12T21:17:38.539Z,8.53
2023-04-12T21:20:11.421Z,8.58
2023-04-12T21:22:37.935Z,8.61
2023-04-12T21:25:04.776Z,8.63
2023-04-12T21:27:31.214Z,8.64
2023-04-12T21:29:58.139Z,8.60
2023-04-12T21:32:25.167Z,8.61
2023-04-12T21:34:51.607Z,8.61
2023-04-12T21:37:18.077Z,8.63
2023-04-12T21:39:44.506Z,8.64
2023-04-12T21:42:11.017Z,8.68
2023-04-12T21:44:39.606Z,8.70
2023-04-12T21:47:06.686Z,8.65
2023-04-12T21:49:34.235Z,8.65
2023-04-12T21:52:00.669Z,8.69
2023-04-12T21:54:31.296Z,8.67
2023-04-12T21:56:58.236Z,8.68
2023-04-12T21:59:25.682Z,8.64
2023-04-12T22:01:52.323Z,8.64
2023-04-12T22:04:19.088Z,8.64
2023-04-12T22:06:45.448Z,8.65
2023-04-12T22:09:12.364Z,8.65
2023-04-12T22:11:39.260Z,8.64
2023-04-12T22:14:05.686Z,8.63
2023-04-12T22:16:32.862Z,8.65
2023-04-12T22:19:00.431Z,8.64
2023-04-12T22:21:28.231Z,8.63
2023-04-12T22:23:55.182Z,8.67
2023-04-12T22:26:21.598Z,8.63
2023-04-12T22:28:49.689Z,8.62
2023-04-12T22:31:16.419Z,8.62
2023-04-12T22:33:43.775Z,8.55
2023-04-12T22:36:10.409Z,8.56
2023-04-12T22:38:37.752Z,8.56
2023-04-12T22:41:04.419Z,8.50
2023-04-12T22:43:41.989Z,8.45
2023-04-12T22:46:16.188Z,8.45
2023-04-12T22:48:43.747Z,8.43
2023-04-12T22:51:10.929Z,8.38
2023-04-12T22:53:37.752Z,8.38
2023-04-12T22:56:04.447Z,8.34
2023-04-12T22:58:31.339Z,8.35
2023-04-12T23:00:58.822Z,8.35
2023-04-12T23:03:25.650Z,8.34
2023-04-12T23:05:52.437Z,8.32
2023-04-12T23:08:20.174Z,8.34
2023-04-12T23:10:46.763Z,8.36
2023-04-12T23:13:13.377Z,8.37
2023-04-12T23:15:40.615Z,8.40
2023-04-12T23:18:10.676Z,8.42
2023-04-12T23:20:38.384Z,8.40
2023-04-12T23:23:05.609Z,8.39
2023-04-12T23:25:40.095Z,8.39
2023-04-12T23:28:12.549Z,8.37
2023-04-12T23:30:45.118Z,8.38
2023-04-12T23:33:12.048Z,8.33
2023-04-12T23:35:39.649Z,8.20
2023-04-12T23:38:06.171Z,8.16
2023-04-12T23:40:33.109Z,8.18
2023-04-12T23:42:59.526Z,8.12
2023-04-12T23:45:26.204Z,8.09
2023-04-12T23:47:56.342Z,8.07
2023-04-12T23:50:23.475Z,8.05
2023-04-12T23:52:49.905Z,7.97
2023-04-12T23:55:16.550Z,7.94
2023-04-12T23:57:42.943Z,7.91
